createdAt,value
2022-10-22T00:00:31.929Z,87.00
2022-10-22T00:02:58.644Z,86.90
2022-10-22T00:05:25.878Z,87.00
2022-10-22T00:07:52.540Z,87.00
2022-10-22T00:10:19.336Z,87.00
2022-10-22T00:12:46.041Z,87.00
2022-10-22T00:15:13.017Z,87.10
2022-10-22T00:17:39.979Z,87.10
2022-10-22T00:20:07.181Z,87.10
2022-10-22T00:22:33.879Z,87.10
2022-10-22T00:25:00.593Z,87.10
2022-10-22T00:27:27.281Z,87.10
2022-10-22T00:29:53.973Z,87.10
2022-10-22T00:32:20.677Z,87.10
2022-10-22T00:34:47.385Z,87.10
2022-10-22T00:37:14.106Z,87.10
2022-10-22T00:39:40.956Z,87.10
2022-10-22T00:42:07.703Z,87.20
2022-10-22T00:44:52.909Z,87.20
2022-10-22T00:47:20.063Z,87.20
2022-10-22T00:49:46.978Z,87.20
2022-10-22T00:52:14.165Z,87.30
2022-10-22T00:54:41.508Z,87.40
2022-10-22T00:57:08.251Z,87.40
2022-10-22T00:59:35.540Z,87.60
2022-10-22T01:02:02.291Z,87.70
2022-10-22T01:04:28.943Z,87.70
2022-10-22T01:06:55.692Z,87.80
2022-10-22T01:09:22.366Z,87.90
2022-10-22T01:11:49.004Z,88.00
2022-10-22T01:14:21.848Z,88.00
2022-10-22T01:16:54.538Z,88.10
2022-10-22T01:19:29.305Z,88.10
2022-10-22T01:22:03.953Z,88.20
2022-10-22T01:24:41.970Z,88.30
2022-10-22T01:27:11.728Z,88.30
2022-10-22T01:29:38.459Z,88.30
2022-10-22T01:32:08.141Z,88.40
2022-10-22T01:34:34.994Z,88.50
2022-10-22T01:37:02.727Z,88.50
2022-10-22T01:39:30.687Z,88.50
2022-10-22T01:41:57.533Z,88.60
2022-10-22T01:44:25.141Z,88.60
2022-10-22T01:46:54.781Z,88.60
2022-10-22T01:49:27.603Z,88.60
2022-10-22T01:51:57.392Z,88.60
2022-10-22T01:54:27.478Z,88.60
2022-10-22T01:57:07.442Z,88.60
2022-10-22T01:59:37.118Z,88.60
2022-10-22T02:02:10.014Z,88.60
2022-10-22T02:05:09.255Z,88.60
2022-10-22T02:07:38.609Z,88.70
2022-10-22T02:10:07.561Z,88.60
2022-10-22T02:12:34.861Z,88.60
2022-10-22T02:15:02.556Z,88.70
2022-10-22T02:17:30.433Z,88.70
2022-10-22T02:20:06.401Z,88.70
2022-10-22T02:22:33.426Z,88.70
2022-10-22T02:25:00.302Z,88.60
2022-10-22T02:27:30.319Z,88.70
2022-10-22T02:30:02.898Z,88.70
2022-10-22T02:32:36.665Z,88.70
2022-10-22T02:35:05.637Z,88.60
2022-10-22T02:37:32.516Z,88.70
2022-10-22T02:39:59.210Z,88.60
2022-10-22T02:42:26.410Z,88.70
2022-10-22T02:44:53.170Z,88.80
2022-10-22T02:47:20.166Z,88.90
2022-10-22T02:49:47.071Z,88.90
2022-10-22T02:52:13.810Z,88.80
2022-10-22T02:54:40.542Z,88.80
2022-10-22T02:57:07.525Z,88.80
2022-10-22T02:59:34.365Z,88.80
2022-10-22T03:02:01.053Z,88.90
2022-10-22T03:04:27.790Z,88.80
2022-10-22T03:06:54.533Z,88.90
2022-10-22T03:09:24.161Z,89.00
2022-10-22T03:11:52.091Z,89.00
2022-10-22T03:14:18.792Z,89.00
2022-10-22T03:16:45.518Z,89.00
2022-10-22T03:19:12.225Z,89.10
2022-10-22T03:21:40.723Z,89.00
2022-10-22T03:24:14.837Z,89.10
2022-10-22T03:26:42.061Z,89.10
2022-10-22T03:29:10.225Z,89.10
2022-10-22T03:31:36.998Z,89.10
2022-10-22T03:34:03.677Z,89.10
2022-10-22T03:36:30.962Z,89.10
2022-10-22T03:38:57.661Z,89.20
2022-10-22T03:41:24.380Z,89.30
2022-10-22T03:43:53.114Z,89.40
2022-10-22T03:46:20.176Z,89.40
2022-10-22T03:48:47.161Z,89.50
2022-10-22T03:51:13.841Z,89.50
2022-10-22T03:53:40.496Z,89.60
2022-10-22T03:56:10.908Z,89.50
2022-10-22T03:58:38.731Z,89.50
2022-10-22T04:01:06.331Z,89.60
2022-10-22T04:03:33.185Z,89.60
2022-10-22T04:06:03.462Z,89.60
2022-10-22T04:08:30.259Z,89.60
2022-10-22T04:10:57.001Z,89.50
2022-10-22T04:13:23.871Z,89.40
2022-10-22T04:15:52.066Z,89.60
2022-10-22T04:18:19.571Z,89.50
2022-10-22T04:20:46.364Z,89.50
2022-10-22T04:23:13.546Z,89.40
2022-10-22T04:25:40.787Z,89.40
2022-10-22T04:28:08.351Z,89.40
2022-10-22T04:30:35.542Z,89.40
2022-10-22T04:33:02.770Z,89.40
2022-10-22T04:35:29.649Z,89.40
2022-10-22T04:37:56.439Z,89.50
2022-10-22T04:40:23.146Z,89.40
2022-10-22T04:42:49.840Z,89.40
2022-10-22T04:45:16.553Z,89.50
2022-10-22T04:47:43.576Z,89.50
2022-10-22T04:50:10.438Z,89.50
2022-10-22T04:52:37.135Z,89.50
2022-10-22T04:55:04.022Z,89.50
2022-10-22T04:57:31.232Z,89.50
2022-10-22T04:59:57.906Z,89.50
2022-10-22T05:02:24.694Z,89.50
2022-10-22T05:04:51.409Z,89.40
2022-10-22T05:07:18.122Z,89.40
2022-10-22T05:09:44.821Z,89.40
2022-10-22T05:12:11.524Z,89.50
2022-10-22T05:14:42.584Z,89.60
2022-10-22T05:17:11.535Z,89.70
2022-10-22T05:19:38.290Z,89.80
2022-10-22T05:22:05.412Z,90.00
2022-10-22T05:24:32.990Z,89.90
2022-10-22T05:27:00.290Z,89.80
2022-10-22T05:29:27.316Z,89.70
2022-10-22T05:31:54.016Z,89.70
2022-10-22T05:34:20.697Z,89.70
2022-10-22T05:36:47.405Z,89.60
2022-10-22T05:39:14.095Z,89.60
2022-10-22T05:41:41.246Z,89.60
2022-10-22T05:44:07.980Z,89.50
2022-10-22T05:46:35.690Z,89.40
2022-10-22T05:49:03.661Z,89.30
2022-10-22T05:51:31.326Z,89.30
2022-10-22T05:53:59.497Z,89.30
2022-10-22T05:56:27.280Z,89.20
2022-10-22T05:58:54.436Z,89.10
2022-10-22T06:01:22.546Z,89.10
2022-10-22T06:03:49.641Z,89.10
2022-10-22T06:06:20.617Z,89.00
2022-10-22T06:08:48.443Z,88.90
2022-10-22T06:11:17.828Z,88.80
2022-10-22T06:13:45.190Z,88.70
2022-10-22T06:16:12.364Z,88.60
2022-10-22T06:18:39.034Z,88.50
2022-10-22T06:21:07.301Z,88.40
2022-10-22T06:23:34.077Z,88.40
2022-10-22T06:26:00.852Z,88.40
2022-10-22T06:28:27.662Z,88.20
2022-10-22T06:30:54.368Z,88.10
2022-10-22T06:33:21.059Z,88.00
2022-10-22T06:35:48.582Z,87.90
2022-10-22T06:38:15.404Z,87.80
2022-10-22T06:40:45.095Z,87.60
2022-10-22T06:43:12.514Z,87.50
2022-10-22T06:45:39.240Z,87.40
2022-10-22T06:48:06.202Z,87.10
2022-10-22T06:50:36.182Z,86.80
2022-10-22T06:53:03.061Z,86.50
2022-10-22T06:55:29.760Z,86.60
2022-10-22T06:57:56.429Z,85.80
2022-10-22T07:00:23.336Z,84.80
2022-10-22T07:02:56.393Z,84.50
2022-10-22T07:05:25.839Z,82.40
2022-10-22T07:07:52.506Z,81.80
2022-10-22T07:10:19.196Z,81.20
2022-10-22T07:12:45.893Z,79.30
2022-10-22T07:15:12.634Z,79.20
2022-10-22T07:20:07.181Z,78.60
2022-10-22T07:22:33.955Z,78.10
2022-10-22T07:25:05.177Z,78.10
2022-10-22T07:27:34.118Z,78.70
2022-10-22T07:30:01.528Z,78.90
2022-10-22T07:32:28.299Z,79.50
2022-10-22T07:34:55.009Z,79.80
2022-10-22T07:37:22.168Z,80.40
2022-10-22T07:39:49.353Z,81.10
2022-10-22T07:42:16.383Z,81.00
2022-10-22T07:44:43.192Z,80.40
2022-10-22T07:47:09.908Z,80.20
2022-10-22T07:49:36.601Z,79.30
2022-10-22T07:52:03.354Z,79.60
2022-10-22T07:54:30.111Z,80.00
2022-10-22T07:56:56.853Z,79.80
2022-10-22T07:59:23.585Z,78.60
2022-10-22T08:01:50.256Z,78.50
2022-10-22T08:04:16.953Z,78.40
2022-10-22T08:06:47.173Z,77.80
2022-10-22T08:09:14.183Z,77.10
2022-10-22T08:11:40.893Z,77.80
2022-10-22T08:14:07.636Z,77.20
2022-10-22T08:16:34.406Z,76.70
2022-10-22T08:19:01.121Z,77.10
2022-10-22T08:21:27.869Z,77.20
2022-10-22T08:23:54.695Z,78.00
2022-10-22T08:26:21.480Z,77.20
2022-10-22T08:28:48.265Z,77.30
2022-10-22T08:31:15.085Z,77.60
2022-10-22T08:33:42.497Z,77.70
2022-10-22T08:36:09.398Z,77.30
2022-10-22T08:38:36.411Z,77.20
2022-10-22T08:41:11.589Z,77.70
2022-10-22T08:43:52.350Z,77.50
2022-10-22T08:46:37.653Z,76.80
2022-10-22T08:49:10.284Z,77.60
2022-10-22T08:51:40.441Z,77.20
2022-10-22T08:54:26.055Z,77.30
2022-10-22T08:56:59.333Z,76.90
2022-10-22T08:59:52.322Z,76.80
2022-10-22T09:02:18.962Z,76.60
2022-10-22T09:04:49.663Z,76.20
2022-10-22T09:07:16.434Z,75.80
2022-10-22T09:09:46.823Z,75.70
2022-10-22T09:12:19.437Z,76.60
2022-10-22T09:14:47.309Z,76.30
2022-10-22T09:17:35.388Z,76.00
2022-10-22T09:20:13.741Z,76.10
2022-10-22T09:22:53.006Z,76.30
2022-10-22T09:25:21.379Z,76.50
2022-10-22T09:27:49.204Z,75.90
2022-10-22T09:30:18.435Z,75.70
2022-10-22T09:32:45.230Z,76.30
2022-10-22T09:35:12.978Z,75.90
2022-10-22T09:37:50.248Z,75.70
2022-10-22T09:40:17.679Z,75.80
2022-10-22T09:42:46.160Z,76.20
2022-10-22T09:45:18.076Z,76.50
2022-10-22T09:48:00.960Z,75.30
2022-10-22T09:50:48.930Z,75.00
2022-10-22T09:53:15.600Z,75.50
2022-10-22T09:55:43.016Z,75.10
2022-10-22T09:58:13.470Z,75.00
2022-10-22T10:00:41.158Z,75.10
2022-10-22T10:03:15.471Z,75.00
2022-10-22T10:05:44.042Z,74.20
2022-10-22T10:08:15.060Z,73.50
2022-10-22T10:10:45.077Z,73.60
2022-10-22T10:13:17.554Z,74.20
2022-10-22T10:15:49.889Z,74.50
2022-10-22T10:18:31.810Z,74.20
2022-10-22T10:21:23.403Z,72.80
2022-10-22T10:24:16.415Z,72.10
2022-10-22T10:27:00.344Z,72.40
2022-10-22T10:29:50.339Z,73.00
2022-10-22T10:32:46.468Z,72.30
2022-10-22T10:35:35.398Z,72.20
2022-10-22T10:38:35.799Z,72.10
2022-10-22T10:41:08.114Z,72.00
2022-10-22T10:44:03.940Z,72.10
2022-10-22T10:47:12.489Z,71.30
2022-10-22T10:49:39.274Z,71.40
2022-10-22T10:52:34.654Z,71.00
2022-10-22T10:55:28.764Z,70.90
2022-10-22T10:58:17.482Z,70.60
2022-10-22T11:00:56.958Z,70.50
2022-10-22T11:03:43.761Z,70.20
2022-10-22T11:06:16.196Z,70.10
2022-10-22T11:08:55.132Z,69.80
2022-10-22T11:11:32.165Z,69.80
2022-10-22T11:14:24.235Z,70.00
2022-10-22T11:17:03.407Z,69.80
2022-10-22T11:20:00.249Z,68.80
2022-10-22T11:23:00.397Z,69.50
2022-10-22T11:25:35.107Z,68.70
2022-10-22T11:28:23.749Z,68.80
2022-10-22T11:30:55.078Z,68.20
2022-10-22T11:33:24.638Z,68.20
2022-10-22T11:35:52.627Z,69.40
2022-10-22T11:38:23.761Z,68.80
2022-10-22T11:41:01.311Z,69.10
2022-10-22T11:43:32.652Z,69.10
2022-10-22T11:46:25.736Z,69.50
2022-10-22T11:49:03.886Z,69.40
2022-10-22T11:51:38.024Z,69.10
2022-10-22T11:54:23.284Z,69.80
2022-10-22T11:56:52.754Z,69.50
2022-10-22T11:59:39.716Z,69.30
2022-10-22T12:02:25.022Z,68.60
2022-10-22T12:04:51.878Z,68.70
2022-10-22T12:07:35.553Z,68.90
2022-10-22T12:10:05.444Z,68.80
2022-10-22T12:12:35.908Z,69.10
2022-10-22T12:15:22.499Z,68.40
2022-10-22T12:17:49.214Z,68.60
2022-10-22T12:20:17.585Z,67.60
2022-10-22T12:22:44.599Z,67.40
2022-10-22T12:25:24.673Z,68.00
2022-10-22T12:27:57.525Z,68.40
2022-10-22T12:30:25.759Z,67.80
2022-10-22T12:32:54.315Z,67.60
2022-10-22T12:35:22.785Z,67.90
2022-10-22T12:37:54.314Z,67.20
2022-10-22T12:40:28.671Z,67.20
2022-10-22T12:42:56.671Z,67.10
2022-10-22T12:45:25.645Z,66.60
2022-10-22T12:47:59.767Z,67.30
2022-10-22T12:50:33.235Z,66.50
2022-10-22T12:53:00.178Z,66.30
2022-10-22T12:55:27.166Z,66.20
2022-10-22T12:57:56.665Z,65.80
2022-10-22T13:00:28.065Z,65.80
2022-10-22T13:02:56.829Z,66.20
2022-10-22T13:05:25.952Z,65.20
2022-10-22T13:08:03.255Z,64.10
2022-10-22T13:10:40.661Z,64.30
2022-10-22T13:13:07.489Z,64.50
2022-10-22T13:15:36.716Z,64.40
2022-10-22T13:18:17.704Z,65.30
2022-10-22T13:21:02.602Z,64.50
2022-10-22T13:23:30.362Z,64.70
2022-10-22T13:26:00.298Z,65.20
2022-10-22T13:28:28.527Z,65.30
2022-10-22T13:30:56.699Z,65.50
2022-10-22T13:33:34.695Z,66.10
2022-10-22T13:36:02.312Z,66.80
2022-10-22T13:38:29.351Z,65.90
2022-10-22T13:40:56.437Z,65.90
2022-10-22T13:43:23.477Z,67.10
2022-10-22T13:45:53.008Z,66.10
2022-10-22T13:48:21.940Z,66.20
2022-10-22T13:50:49.397Z,65.30
2022-10-22T13:53:18.908Z,65.90
2022-10-22T13:55:45.887Z,65.90
2022-10-22T13:58:13.989Z,65.70
2022-10-22T14:00:46.374Z,65.90
2022-10-22T14:03:16.303Z,65.90
2022-10-22T14:05:43.277Z,66.40
2022-10-22T14:08:14.170Z,66.10
2022-10-22T14:12:53.369Z,67.30
2022-10-22T14:15:24.887Z,67.70
2022-10-22T14:17:56.522Z,66.90
2022-10-22T14:20:25.018Z,66.10
2022-10-22T14:22:51.860Z,66.20
2022-10-22T14:25:20.514Z,66.30
2022-10-22T14:27:47.451Z,67.10
2022-10-22T14:30:15.411Z,68.30
2022-10-22T14:32:42.690Z,68.20
2022-10-22T14:35:14.469Z,68.60
2022-10-22T14:37:41.643Z,67.40
2022-10-22T14:40:09.098Z,67.20
2022-10-22T14:42:40.330Z,67.50
2022-10-22T14:45:11.077Z,66.40
2022-10-22T14:47:37.787Z,65.40
2022-10-22T14:50:04.667Z,64.40
2022-10-22T14:52:31.451Z,64.90
2022-10-22T14:54:58.261Z,64.90
2022-10-22T14:57:25.016Z,65.50
2022-10-22T14:59:54.882Z,64.30
2022-10-22T15:02:21.878Z,65.10
2022-10-22T15:04:48.792Z,65.90
2022-10-22T15:07:18.952Z,63.80
2022-10-22T15:09:45.887Z,64.80
2022-10-22T15:12:12.602Z,64.10
2022-10-22T15:14:39.373Z,64.90
2022-10-22T15:17:06.076Z,64.80
2022-10-22T15:19:32.802Z,65.10
2022-10-22T15:21:59.574Z,65.40
2022-10-22T15:24:26.322Z,64.90
2022-10-22T15:26:54.085Z,65.30
2022-10-22T15:29:20.791Z,66.20
2022-10-22T15:31:52.197Z,65.50
2022-10-22T15:34:27.276Z,65.80
2022-10-22T15:36:55.291Z,65.80
2022-10-22T15:39:23.118Z,65.80
2022-10-22T15:41:50.692Z,66.50
2022-10-22T15:44:18.880Z,67.40
2022-10-22T15:46:45.697Z,68.70
2022-10-22T15:49:13.066Z,67.50
2022-10-22T15:51:40.334Z,68.00
2022-10-22T15:54:10.133Z,68.40
2022-10-22T15:56:37.132Z,69.20
2022-10-22T15:59:06.806Z,69.10
2022-10-22T16:01:34.547Z,69.00
2022-10-22T16:04:02.920Z,70.20
2022-10-22T16:06:31.422Z,69.50
2022-10-22T16:08:59.587Z,70.30
2022-10-22T16:11:27.166Z,70.60
2022-10-22T16:13:56.396Z,69.50
2022-10-22T16:16:24.086Z,69.50
2022-10-22T16:18:51.487Z,70.10
2022-10-22T16:21:19.189Z,70.90
2022-10-22T16:23:46.016Z,72.30
2022-10-22T16:26:14.031Z,71.70
2022-10-22T16:28:41.835Z,71.20
2022-10-22T16:31:10.196Z,71.20
2022-10-22T16:33:41.721Z,71.30
2022-10-22T16:36:14.469Z,72.00
2022-10-22T16:38:41.346Z,73.10
2022-10-22T16:41:13.109Z,72.60
2022-10-22T16:43:40.719Z,72.90
2022-10-22T16:46:07.840Z,73.10
2022-10-22T16:48:35.099Z,75.00
2022-10-22T16:51:05.977Z,75.80
2022-10-22T16:56:19.869Z,75.90
2022-10-22T16:58:48.273Z,74.10
2022-10-22T17:01:17.996Z,73.90
2022-10-22T17:03:45.144Z,74.40
2022-10-22T17:06:12.037Z,73.80
2022-10-22T17:08:39.675Z,73.30
2022-10-22T17:11:07.523Z,73.40
2022-10-22T17:13:34.574Z,73.50
2022-10-22T17:16:02.523Z,73.60
2022-10-22T17:18:29.752Z,74.00
2022-10-22T17:20:58.390Z,74.80
2022-10-22T17:23:31.088Z,74.70
2022-10-22T17:26:02.025Z,74.60
2022-10-22T17:28:29.454Z,74.70
2022-10-22T17:31:04.078Z,74.80
2022-10-22T17:33:31.548Z,75.40
2022-10-22T17:35:58.360Z,75.60
2022-10-22T17:38:25.190Z,75.90
2022-10-22T17:40:52.287Z,76.20
2022-10-22T17:43:19.579Z,76.20
2022-10-22T17:45:46.398Z,76.50
2022-10-22T17:48:13.414Z,76.40
2022-10-22T17:50:46.974Z,77.20
2022-10-22T17:53:16.611Z,77.30
2022-10-22T17:55:43.350Z,77.60
2022-10-22T17:58:10.119Z,77.20
2022-10-22T18:00:36.931Z,76.90
2022-10-22T18:03:03.846Z,77.40
2022-10-22T18:05:30.600Z,78.00
2022-10-22T18:07:57.537Z,77.80
2022-10-22T18:10:24.834Z,77.70
2022-10-22T18:12:51.582Z,77.70
2022-10-22T18:15:18.377Z,77.50
2022-10-22T18:17:47.114Z,77.50
2022-10-22T18:20:14.111Z,77.30
2022-10-22T18:22:42.479Z,77.20
2022-10-22T18:25:09.557Z,77.90
2022-10-22T18:27:37.209Z,77.80
2022-10-22T18:30:04.226Z,78.00
2022-10-22T18:32:33.076Z,78.20
2022-10-22T18:34:59.924Z,78.60
2022-10-22T18:37:26.716Z,79.40
2022-10-22T18:39:53.539Z,78.90
2022-10-22T18:42:20.376Z,77.80
2022-10-22T18:44:47.258Z,77.30
2022-10-22T18:47:14.217Z,77.10
2022-10-22T18:49:40.994Z,77.00
2022-10-22T18:52:07.835Z,77.20
2022-10-22T18:54:35.192Z,77.30
2022-10-22T18:57:05.127Z,77.30
2022-10-22T18:59:31.894Z,77.50
2022-10-22T19:01:59.705Z,77.80
2022-10-22T19:04:33.629Z,78.00
2022-10-22T19:07:00.579Z,78.20
2022-10-22T19:09:27.448Z,78.50
2022-10-22T19:11:54.267Z,78.50
2022-10-22T19:14:22.233Z,78.50
2022-10-22T19:16:49.779Z,78.70
2022-10-22T19:19:19.008Z,78.90
2022-10-22T19:21:46.154Z,78.90
2022-10-22T19:24:14.499Z,78.90
2022-10-22T19:26:41.484Z,79.00
2022-10-22T19:29:14.105Z,79.00
2022-10-22T19:31:41.747Z,79.00
2022-10-22T19:39:05.586Z,79.60
2022-10-22T19:41:32.595Z,79.60
2022-10-22T19:44:00.614Z,79.80
2022-10-22T19:46:28.471Z,80.00
2022-10-22T19:48:57.243Z,80.10
2022-10-22T19:51:29.832Z,80.10
2022-10-22T19:53:58.271Z,80.10
2022-10-22T19:56:25.116Z,80.20
2022-10-22T19:58:51.942Z,80.30
2022-10-22T20:01:18.845Z,80.30
2022-10-22T20:03:45.985Z,80.40
2022-10-22T20:06:14.098Z,80.40
2022-10-22T20:08:41.004Z,80.60
2022-10-22T20:11:09.259Z,80.80
2022-10-22T20:13:36.228Z,81.10
2022-10-22T20:16:03.297Z,81.40
2022-10-22T20:18:30.106Z,81.40
2022-10-22T20:20:56.906Z,81.40
2022-10-22T20:23:23.743Z,81.50
2022-10-22T20:25:50.499Z,81.50
2022-10-22T20:28:17.306Z,81.80
2022-10-22T20:30:44.840Z,81.80
2022-10-22T20:33:16.230Z,81.80
2022-10-22T20:35:43.240Z,81.70
2022-10-22T20:38:12.775Z,81.60
2022-10-22T20:40:39.724Z,81.70
2022-10-22T20:43:09.491Z,81.80
2022-10-22T20:45:38.568Z,82.00
2022-10-22T20:48:06.003Z,82.10
2022-10-22T20:50:33.281Z,82.20
2022-10-22T20:53:00.117Z,82.40
2022-10-22T20:55:27.426Z,82.40
2022-10-22T20:57:54.220Z,82.50
2022-10-22T21:00:21.141Z,82.30
2022-10-22T21:02:47.970Z,82.20
2022-10-22T21:05:14.780Z,82.20
2022-10-22T21:07:41.973Z,82.00
2022-10-22T21:10:09.192Z,81.90
2022-10-22T21:12:36.059Z,82.10
2022-10-22T21:15:03.319Z,82.20
2022-10-22T21:17:30.084Z,82.30
2022-10-22T21:19:56.860Z,82.20
2022-10-22T21:22:23.733Z,82.20
2022-10-22T21:24:50.520Z,82.20
2022-10-22T21:27:17.343Z,82.10
2022-10-22T21:29:44.152Z,82.10
2022-10-22T21:32:11.209Z,82.20
2022-10-22T21:34:39.061Z,82.30
2022-10-22T21:37:06.025Z,82.30
2022-10-22T21:39:32.973Z,82.30
2022-10-22T21:42:00.020Z,82.30
2022-10-22T21:44:27.104Z,82.40
2022-10-22T21:46:53.856Z,82.40
2022-10-22T21:49:20.710Z,82.50
2022-10-22T21:51:47.491Z,82.60
2022-10-22T21:54:14.373Z,82.70
2022-10-22T21:56:41.464Z,83.00
2022-10-22T21:59:08.604Z,83.10
2022-10-22T22:01:35.545Z,83.30
2022-10-22T22:04:02.607Z,83.40
2022-10-22T22:06:33.116Z,83.30
2022-10-22T22:09:01.260Z,83.30
2022-10-22T22:11:28.216Z,83.30
2022-10-22T22:13:55.715Z,83.40
2022-10-22T22:16:27.278Z,83.30
2022-10-22T22:18:59.387Z,83.50
2022-10-22T22:21:26.629Z,83.60
2022-10-22T22:23:54.006Z,83.60
2022-10-22T22:26:25.409Z,83.60
2022-10-22T22:28:55.530Z,83.70
2022-10-22T22:31:23.841Z,83.70
2022-10-22T22:33:51.033Z,83.70
2022-10-22T22:36:17.814Z,83.80
2022-10-22T22:38:44.684Z,83.80
2022-10-22T22:41:11.408Z,83.80
2022-10-22T22:43:38.180Z,83.90
2022-10-22T22:46:06.356Z,83.90
2022-10-22T22:48:33.799Z,84.00
2022-10-22T22:51:01.987Z,84.00
2022-10-22T22:53:29.098Z,84.10
2022-10-22T22:56:06.207Z,84.20
2022-10-22T22:58:33.027Z,84.10
2022-10-22T23:01:13.770Z,84.10
2022-10-22T23:03:40.736Z,84.20
2022-10-22T23:06:07.698Z,84.20
2022-10-22T23:08:34.991Z,84.20
2022-10-22T23:11:06.373Z,84.30
2022-10-22T23:13:33.777Z,84.30
2022-10-22T23:16:04.821Z,84.30
2022-10-22T23:18:31.563Z,84.20
2022-10-22T23:20:58.416Z,84.30
2022-10-22T23:23:25.270Z,84.30
2022-10-22T23:25:54.961Z,84.40
2022-10-22T23:28:23.172Z,84.40
2022-10-22T23:30:50.711Z,84.40
2022-10-22T23:33:19.799Z,84.40
2022-10-22T23:35:47.166Z,84.30
2022-10-22T23:38:14.727Z,84.40
2022-10-22T23:40:42.194Z,84.40
2022-10-22T23:43:09.844Z,84.30
2022-10-22T23:45:37.428Z,84.30
2022-10-22T23:48:05.140Z,84.40
2022-10-22T23:50:32.672Z,84.30
2022-10-22T23:53:00.304Z,84.30
2022-10-22T23:55:28.198Z,84.30
2022-10-22T23:57:55.834Z,84.30
